createdAt,value
2023-04-12T00:00:29.914Z,64.49
2023-04-12T00:03:03.382Z,64.54
2023-04-12T00:05:31.977Z,64.63
2023-04-12T00:08:06.405Z,64.87
2023-04-12T00:10:36.863Z,65.10
2023-04-12T00:13:05.598Z,64.65
2023-04-12T00:15:35.925Z,64.49
2023-04-12T00:18:05.785Z,64.56
2023-04-12T00:20:34.605Z,64.68
2023-04-12T00:23:13.072Z,64.60
2023-04-12T00:25:41.549Z,64.33
2023-04-12T00:28:11.268Z,64.21
2023-04-12T00:30:41.498Z,64.21
2023-04-12T00:33:09.949Z,64.45
2023-04-12T00:35:38.386Z,64.39
2023-04-12T00:38:11.033Z,64.63
2023-04-12T00:40:43.023Z,64.62
2023-04-12T00:43:18.983Z,64.74
2023-04-12T00:45:47.916Z,64.86
2023-04-12T00:48:21.093Z,64.92
2023-04-12T00:50:50.341Z,65.23
2023-04-12T00:53:18.928Z,65.25
2023-04-12T00:55:47.468Z,65.56
2023-04-12T00:58:16.136Z,65.62
2023-04-12T01:00:50.660Z,65.68
2023-04-12T01:03:23.668Z,65.79
2023-04-12T01:06:09.762Z,65.91
2023-04-12T01:08:52.589Z,66.08
2023-04-12T01:11:32.053Z,65.94
2023-04-12T01:14:08.400Z,66.11
2023-04-12T01:16:51.446Z,66.41
2023-04-12T01:19:31.763Z,66.54
2023-04-12T01:22:00.401Z,66.80
2023-04-12T01:25:14.452Z,67.04
2023-04-12T01:27:45.472Z,67.61
2023-04-12T01:30:16.146Z,67.35
2023-04-12T01:32:47.201Z,67.20
2023-04-12T01:35:16.137Z,67.47
2023-04-12T01:37:45.281Z,67.56
2023-04-12T01:40:13.865Z,67.51
2023-04-12T01:42:42.576Z,67.83
2023-04-12T01:45:11.514Z,67.96
2023-04-12T01:47:41.508Z,68.01
2023-04-12T01:50:18.994Z,68.15
2023-04-12T01:52:53.101Z,68.28
2023-04-12T01:55:22.528Z,68.64
2023-04-12T01:57:50.928Z,68.69
2023-04-12T02:00:19.887Z,68.78
2023-04-12T02:02:49.235Z,68.75
2023-04-12T02:05:18.439Z,68.99
2023-04-12T02:07:46.935Z,68.93
2023-04-12T02:10:33.594Z,69.19
2023-04-12T02:13:03.828Z,69.42
2023-04-12T02:15:32.807Z,69.84
2023-04-12T02:18:03.955Z,69.86
2023-04-12T02:20:32.545Z,70.14
2023-04-12T02:23:01.253Z,69.96
2023-04-12T02:25:29.972Z,70.34
2023-04-12T02:27:58.850Z,70.40
2023-04-12T02:30:29.560Z,70.73
2023-04-12T02:32:59.425Z,70.93
2023-04-12T02:35:32.017Z,70.74
2023-04-12T02:38:11.718Z,70.82
2023-04-12T02:40:42.413Z,70.84
2023-04-12T02:43:14.994Z,71.07
2023-04-12T02:45:47.877Z,70.98
2023-04-12T02:48:16.650Z,70.95
2023-04-12T02:50:45.456Z,70.96
2023-04-12T02:53:23.249Z,71.50
2023-04-12T02:56:13.220Z,71.52
2023-04-12T02:58:41.859Z,71.64
2023-04-12T03:01:13.500Z,71.65
2023-04-12T03:03:58.687Z,71.58
2023-04-12T03:06:43.475Z,71.76
2023-04-12T03:09:12.550Z,71.54
2023-04-12T03:11:41.494Z,71.91
2023-04-12T03:14:14.795Z,71.96
2023-04-12T03:16:44.442Z,72.12
2023-04-12T03:19:15.991Z,72.11
2023-04-12T03:21:46.014Z,72.13
2023-04-12T03:24:14.497Z,72.21
2023-04-12T03:26:44.049Z,71.95
2023-04-12T03:29:19.703Z,71.98
2023-04-12T03:31:50.041Z,72.00
2023-04-12T03:34:19.302Z,72.09
2023-04-12T03:36:51.315Z,72.12
2023-04-12T03:39:48.180Z,72.53
2023-04-12T03:42:32.185Z,72.19
2023-04-12T03:45:07.284Z,72.03
2023-04-12T03:47:37.350Z,72.19
2023-04-12T03:50:11.631Z,72.11
2023-04-12T03:52:42.627Z,72.26
2023-04-12T03:55:13.796Z,72.42
2023-04-12T03:57:42.766Z,72.40
2023-04-12T04:00:12.766Z,72.44
2023-04-12T04:03:11.091Z,72.27
2023-04-12T04:05:48.541Z,72.09
2023-04-12T04:08:19.241Z,72.02
2023-04-12T04:10:54.598Z,71.97
2023-04-12T04:13:34.613Z,71.92
2023-04-12T04:16:07.593Z,71.78
2023-04-12T04:18:36.335Z,71.76
2023-04-12T04:21:09.925Z,71.61
2023-04-12T04:23:39.444Z,71.76
2023-04-12T04:26:12.015Z,71.92
2023-04-12T04:28:52.003Z,71.93
2023-04-12T04:31:26.554Z,72.24
2023-04-12T04:33:57.047Z,72.20
2023-04-12T04:36:35.711Z,72.17
2023-04-12T04:39:16.051Z,72.06
2023-04-12T04:41:46.911Z,71.78
2023-04-12T04:44:26.085Z,71.63
2023-04-12T04:46:59.360Z,71.24
2023-04-12T04:49:34.086Z,71.29
2023-04-12T04:52:10.825Z,71.37
2023-04-12T04:54:40.324Z,71.31
2023-04-12T04:57:13.043Z,71.44
2023-04-12T04:59:42.073Z,71.42
2023-04-12T05:02:16.926Z,71.40
2023-04-12T05:04:50.332Z,71.56
2023-04-12T05:07:20.707Z,71.45
2023-04-12T05:09:49.975Z,71.55
2023-04-12T05:12:21.677Z,71.46
2023-04-12T05:15:08.817Z,71.58
2023-04-12T05:17:40.202Z,71.69
2023-04-12T05:20:11.109Z,72.02
2023-04-12T05:22:40.742Z,72.13
2023-04-12T05:25:10.024Z,72.18
2023-04-12T05:28:18.850Z,72.45
2023-04-12T05:30:56.008Z,72.30
2023-04-12T05:33:45.205Z,72.67
2023-04-12T05:36:14.062Z,72.81
2023-04-12T05:38:47.595Z,72.82
2023-04-12T05:41:17.827Z,73.28
2023-04-12T05:43:47.286Z,72.95
2023-04-12T05:46:19.931Z,72.86
2023-04-12T05:48:52.685Z,72.64
2023-04-12T05:51:30.655Z,72.47
2023-04-12T05:54:07.446Z,72.35
2023-04-12T05:56:38.063Z,72.07
2023-04-12T05:59:11.137Z,72.17
2023-04-12T06:01:43.421Z,72.20
2023-04-12T06:04:15.463Z,72.30
2023-04-12T06:06:52.238Z,72.25
2023-04-12T06:09:21.068Z,72.14
2023-04-12T06:11:49.877Z,72.18
2023-04-12T06:14:18.986Z,72.27
2023-04-12T06:16:48.081Z,72.35
2023-04-12T06:19:16.713Z,72.35
2023-04-12T06:21:48.621Z,72.45
2023-04-12T06:24:17.450Z,72.52
2023-04-12T06:26:48.004Z,72.47
2023-04-12T06:29:17.587Z,72.60
2023-04-12T06:31:48.734Z,72.65
2023-04-12T06:34:17.733Z,72.95
2023-04-12T06:36:48.271Z,73.15
2023-04-12T06:39:17.112Z,73.22
2023-04-12T06:41:47.749Z,73.27
2023-04-12T06:44:20.865Z,73.24
2023-04-12T06:46:49.325Z,73.46
2023-04-12T06:49:18.738Z,73.79
2023-04-12T06:51:47.551Z,73.76
2023-04-12T06:54:19.681Z,73.97
2023-04-12T06:56:49.330Z,74.19
2023-04-12T06:59:18.635Z,74.45
2023-04-12T07:01:48.908Z,74.37
2023-04-12T07:04:18.126Z,74.16
2023-04-12T07:06:50.019Z,74.34
2023-04-12T07:09:19.752Z,74.33
2023-04-12T07:11:48.827Z,73.85
2023-04-12T07:14:17.684Z,73.98
2023-04-12T07:16:48.509Z,74.27
2023-04-12T07:19:17.349Z,74.39
2023-04-12T07:21:54.806Z,74.46
2023-04-12T07:24:23.429Z,74.79
2023-04-12T07:26:55.511Z,74.80
2023-04-12T07:29:24.484Z,74.47
2023-04-12T07:31:53.176Z,74.71
2023-04-12T07:34:22.012Z,74.75
2023-04-12T07:36:51.806Z,74.81
2023-04-12T07:39:22.277Z,74.92
2023-04-12T07:44:54.982Z,75.26
2023-04-12T07:47:23.612Z,75.23
2023-04-12T07:49:52.691Z,75.27
2023-04-12T07:52:21.905Z,75.35
2023-04-12T07:54:58.807Z,75.14
2023-04-12T07:57:28.874Z,75.16
2023-04-12T07:59:57.684Z,75.21
2023-04-12T08:02:26.411Z,75.33
2023-04-12T08:04:55.223Z,75.43
2023-04-12T08:07:27.980Z,75.56
2023-04-12T08:09:56.986Z,75.42
2023-04-12T08:12:25.743Z,75.26
2023-04-12T08:14:54.280Z,75.06
2023-04-12T08:17:22.840Z,75.11
2023-04-12T08:19:51.507Z,75.48
2023-04-12T08:22:20.440Z,75.46
2023-04-12T08:24:50.408Z,75.43
2023-04-12T08:27:19.139Z,75.44
2023-04-12T08:29:48.058Z,76.10
2023-04-12T08:32:16.925Z,76.65
2023-04-12T08:34:46.236Z,76.76
2023-04-12T08:37:20.209Z,75.89
2023-04-12T08:39:48.647Z,75.67
2023-04-12T08:42:17.073Z,75.56
2023-04-12T08:44:45.778Z,75.61
2023-04-12T08:47:14.187Z,75.80
2023-04-12T08:49:43.867Z,75.55
2023-04-12T08:52:13.569Z,75.81
2023-04-12T08:54:42.033Z,75.69
2023-04-12T08:57:10.594Z,75.63
2023-04-12T08:59:39.904Z,75.43
2023-04-12T09:02:08.830Z,75.01
2023-04-12T09:04:53.182Z,75.01
2023-04-12T09:07:28.968Z,75.21
2023-04-12T09:09:58.726Z,75.35
2023-04-12T09:12:27.991Z,75.64
2023-04-12T09:15:31.055Z,75.58
2023-04-12T09:18:17.123Z,75.18
2023-04-12T09:20:46.738Z,75.15
2023-04-12T09:23:21.686Z,75.21
2023-04-12T09:25:53.421Z,75.35
2023-04-12T09:28:27.353Z,75.13
2023-04-12T09:31:02.335Z,74.93
2023-04-12T09:33:36.983Z,74.91
2023-04-12T09:36:10.257Z,74.92
2023-04-12T09:38:39.665Z,75.07
2023-04-12T09:41:21.555Z,75.07
2023-04-12T09:43:54.202Z,75.08
2023-04-12T09:46:24.307Z,75.21
2023-04-12T09:48:55.252Z,75.20
2023-04-12T09:51:34.068Z,75.27
2023-04-12T09:54:05.352Z,75.24
2023-04-12T09:56:36.218Z,75.22
2023-04-12T09:59:11.244Z,75.13
2023-04-12T10:01:40.469Z,75.19
2023-04-12T10:04:10.604Z,75.11
2023-04-12T10:11:05.631Z,74.39
2023-04-12T10:13:35.704Z,74.50
2023-04-12T10:16:06.354Z,74.58
2023-04-12T10:22:19.456Z,73.55
2023-04-12T10:25:20.018Z,73.14
2023-04-12T10:27:49.028Z,73.02
2023-04-12T10:38:03.829Z,72.09
2023-04-12T10:40:34.105Z,72.15
2023-04-12T10:43:22.758Z,71.89
2023-04-12T10:45:52.580Z,71.41
2023-04-12T10:48:31.678Z,71.06
2023-04-12T10:51:26.961Z,71.10
2023-04-12T10:54:12.543Z,71.16
2023-04-12T10:56:42.942Z,70.92
2023-04-12T10:59:34.263Z,70.99
2023-04-12T11:02:09.481Z,70.72
2023-04-12T11:04:39.178Z,71.04
2023-04-12T11:07:13.580Z,70.70
2023-04-12T11:09:57.701Z,70.47
2023-04-12T11:12:35.546Z,70.55
2023-04-12T11:15:06.470Z,70.78
2023-04-12T11:17:55.586Z,70.21
2023-04-12T11:20:26.643Z,70.59
2023-04-12T11:22:56.055Z,70.96
2023-04-12T11:25:26.639Z,71.06
2023-04-12T11:27:56.601Z,71.06
2023-04-12T11:30:29.917Z,70.85
2023-04-12T11:32:58.988Z,71.19
2023-04-12T11:35:30.632Z,71.29
2023-04-12T11:37:59.857Z,71.38
2023-04-12T11:40:28.833Z,71.39
2023-04-12T11:42:57.995Z,71.66
2023-04-12T11:45:27.070Z,71.40
2023-04-12T11:47:58.404Z,71.56
2023-04-12T11:50:31.664Z,70.57
2023-04-12T11:53:12.428Z,70.68
2023-04-12T11:55:41.796Z,70.82
2023-04-12T11:58:10.431Z,70.82
2023-04-12T12:00:44.307Z,70.77
2023-04-12T12:03:14.032Z,70.78
2023-04-12T12:05:43.985Z,70.75
2023-04-12T12:08:13.294Z,71.02
2023-04-12T12:11:03.962Z,70.54
2023-04-12T12:13:46.660Z,70.38
2023-04-12T12:16:15.886Z,70.02
2023-04-12T12:18:51.033Z,70.09
2023-04-12T12:21:22.083Z,70.22
2023-04-12T12:23:51.089Z,70.40
2023-04-12T12:26:24.165Z,70.57
2023-04-12T12:28:54.056Z,70.54
2023-04-12T12:31:26.543Z,70.44
2023-04-12T12:33:59.651Z,70.55
2023-04-12T12:36:34.767Z,70.40
2023-04-12T12:39:13.005Z,70.18
2023-04-12T12:41:41.947Z,70.42
2023-04-12T12:44:15.864Z,70.18
2023-04-12T12:46:55.249Z,69.74
2023-04-12T12:49:25.837Z,69.72
2023-04-12T12:51:55.220Z,69.94
2023-04-12T12:54:39.311Z,69.65
2023-04-12T12:57:09.950Z,69.45
2023-04-12T12:59:38.988Z,68.92
2023-04-12T13:02:08.079Z,69.46
2023-04-12T13:04:39.885Z,68.96
2023-04-12T13:07:09.465Z,69.21
2023-04-12T13:09:38.534Z,69.34
2023-04-12T13:12:08.234Z,69.47
2023-04-12T13:14:39.532Z,69.42
2023-04-12T13:17:08.426Z,69.31
2023-04-12T13:19:39.224Z,69.11
2023-04-12T13:22:08.946Z,69.26
2023-04-12T13:24:37.848Z,69.19
2023-04-12T13:27:06.468Z,69.38
2023-04-12T13:29:39.006Z,69.47
2023-04-12T13:32:08.171Z,69.16
2023-04-12T13:34:37.910Z,69.21
2023-04-12T13:37:06.512Z,68.66
2023-04-12T13:39:40.435Z,68.49
2023-04-12T13:42:09.036Z,68.71
2023-04-12T13:44:38.204Z,68.65
2023-04-12T13:47:08.193Z,68.25
2023-04-12T13:49:37.929Z,68.74
2023-04-12T13:52:06.588Z,69.00
2023-04-12T13:54:36.176Z,68.61
2023-04-12T13:57:04.862Z,68.58
2023-04-12T13:59:33.397Z,68.59
2023-04-12T14:02:02.419Z,68.52
2023-04-12T14:04:31.714Z,68.63
2023-04-12T14:07:01.040Z,68.32
2023-04-12T14:09:35.822Z,68.04
2023-04-12T14:12:05.524Z,68.15
2023-04-12T14:14:34.189Z,68.24
2023-04-12T14:17:10.642Z,68.01
2023-04-12T14:19:40.005Z,67.62
2023-04-12T14:22:08.472Z,67.69
2023-04-12T14:24:41.910Z,68.12
2023-04-12T14:27:10.548Z,67.28
2023-04-12T14:29:40.035Z,67.63
2023-04-12T14:32:09.101Z,67.65
2023-04-12T14:34:38.268Z,67.67
2023-04-12T14:37:06.878Z,67.54
2023-04-12T14:39:36.489Z,67.60
2023-04-12T14:42:06.090Z,67.17
2023-04-12T14:44:40.206Z,67.57
2023-04-12T14:47:09.517Z,67.61
2023-04-12T14:49:38.200Z,68.01
2023-04-12T14:52:08.552Z,67.56
2023-04-12T14:54:36.997Z,67.96
2023-04-12T14:57:05.460Z,67.79
2023-04-12T14:59:41.406Z,67.97
2023-04-12T15:02:10.245Z,67.86
2023-04-12T15:04:39.137Z,68.30
2023-04-12T15:07:09.261Z,68.37
2023-04-12T15:09:38.825Z,68.53
2023-04-12T15:12:08.676Z,68.51
2023-04-12T15:14:39.163Z,67.75
2023-04-12T15:17:11.339Z,68.38
2023-04-12T15:19:39.937Z,68.27
2023-04-12T15:22:08.457Z,68.36
2023-04-12T15:24:38.889Z,68.37
2023-04-12T15:27:08.045Z,68.46
2023-04-12T15:29:36.944Z,68.10
2023-04-12T15:32:05.505Z,68.09
2023-04-12T15:34:35.407Z,68.40
2023-04-12T15:37:05.524Z,68.06
2023-04-12T15:39:36.765Z,68.31
2023-04-12T15:42:06.036Z,67.82
2023-04-12T15:44:34.985Z,68.24
2023-04-12T15:47:11.050Z,67.59
2023-04-12T15:49:40.618Z,67.80
2023-04-12T15:52:09.367Z,67.96
2023-04-12T15:54:44.037Z,68.02
2023-04-12T15:57:13.996Z,68.31
2023-04-12T15:59:47.968Z,68.29
2023-04-12T16:02:17.489Z,68.30
2023-04-12T16:04:46.671Z,68.33
2023-04-12T16:07:15.356Z,68.64
2023-04-12T16:09:44.541Z,68.47
2023-04-12T16:12:14.807Z,68.44
2023-04-12T16:14:44.039Z,68.36
2023-04-12T16:17:14.958Z,68.55
2023-04-12T16:19:43.899Z,68.66
2023-04-12T16:22:12.800Z,68.38
2023-04-12T16:24:41.433Z,68.29
2023-04-12T16:27:11.248Z,68.25
2023-04-12T16:29:40.572Z,68.70
2023-04-12T16:32:15.135Z,68.60
2023-04-12T16:34:44.830Z,68.53
2023-04-12T16:37:13.497Z,68.01
2023-04-12T16:39:46.716Z,67.99
2023-04-12T16:42:15.970Z,68.43
2023-04-12T16:44:44.850Z,68.37
2023-04-12T16:47:14.843Z,68.12
2023-04-12T16:49:44.669Z,68.15
2023-04-12T16:52:13.577Z,68.02
2023-04-12T16:54:42.722Z,67.90
2023-04-12T16:57:12.104Z,67.99
2023-04-12T16:59:42.589Z,68.00
2023-04-12T17:02:12.844Z,67.67
2023-04-12T17:04:42.242Z,67.99
2023-04-12T17:07:11.378Z,68.03
2023-04-12T17:09:41.298Z,68.00
2023-04-12T17:12:09.926Z,68.05
2023-04-12T17:14:39.002Z,68.26
2023-04-12T17:17:19.608Z,67.91
2023-04-12T17:19:48.750Z,67.56
2023-04-12T17:22:18.311Z,67.46
2023-04-12T17:24:56.560Z,67.47
2023-04-12T17:27:26.108Z,67.50
2023-04-12T17:29:54.925Z,67.69
2023-04-12T17:32:29.281Z,67.53
2023-04-12T17:34:59.084Z,67.62
2023-04-12T17:37:30.580Z,67.40
2023-04-12T17:40:01.179Z,67.57
2023-04-12T17:42:30.690Z,67.67
2023-04-12T17:45:00.176Z,67.57
2023-04-12T17:47:35.012Z,67.57
2023-04-12T17:50:04.977Z,67.75
2023-04-12T17:52:36.436Z,67.43
2023-04-12T17:56:03.882Z,67.32
2023-04-12T17:59:17.491Z,67.26
2023-04-12T18:01:48.304Z,67.29
2023-04-12T18:04:17.740Z,67.38
2023-04-12T18:06:48.309Z,67.41
2023-04-12T18:09:20.891Z,67.24
2023-04-12T18:11:51.895Z,67.34
2023-04-12T18:14:20.955Z,67.22
2023-04-12T18:16:56.163Z,67.23
2023-04-12T18:19:25.172Z,67.57
2023-04-12T18:21:54.342Z,67.56
2023-04-12T18:24:23.653Z,67.42
2023-04-12T18:26:52.934Z,67.35
2023-04-12T18:29:22.173Z,66.99
2023-04-12T18:31:51.890Z,67.27
2023-04-12T18:34:21.176Z,67.29
2023-04-12T18:36:51.522Z,66.77
2023-04-12T18:39:20.750Z,66.98
2023-04-12T18:41:49.914Z,67.00
2023-04-12T18:44:20.137Z,66.80
2023-04-12T18:46:49.001Z,67.11
2023-04-12T18:49:18.780Z,67.31
2023-04-12T18:51:47.802Z,67.08
2023-04-12T18:54:17.807Z,66.73
2023-04-12T18:56:46.586Z,66.85
2023-04-12T18:59:17.928Z,66.98
2023-04-12T19:01:49.232Z,67.09
2023-04-12T19:04:18.325Z,66.63
2023-04-12T19:06:47.580Z,67.05
2023-04-12T19:09:16.673Z,67.07
2023-04-12T19:11:45.920Z,66.71
2023-04-12T19:14:14.938Z,67.02
2023-04-12T19:16:43.730Z,66.75
2023-04-12T19:19:12.516Z,66.75
2023-04-12T19:21:41.847Z,66.61
2023-04-12T19:24:10.376Z,66.78
2023-04-12T19:26:46.955Z,66.24
2023-04-12T19:29:16.252Z,65.91
2023-04-12T19:31:47.758Z,65.95
2023-04-12T19:34:18.355Z,65.99
2023-04-12T19:36:47.821Z,66.17
2023-04-12T19:39:18.395Z,65.90
2023-04-12T19:41:49.467Z,65.97
2023-04-12T19:44:17.798Z,65.82
2023-04-12T19:46:46.900Z,65.67
2023-04-12T19:49:15.362Z,65.55
2023-04-12T19:51:44.184Z,65.72
2023-04-12T19:54:13.670Z,65.60
2023-04-12T19:56:43.013Z,65.65
2023-04-12T19:59:12.360Z,65.88
2023-04-12T20:01:48.728Z,65.68
2023-04-12T20:04:19.398Z,65.49
2023-04-12T20:06:49.724Z,65.57
2023-04-12T20:09:18.579Z,65.90
2023-04-12T20:11:47.096Z,65.77
2023-04-12T20:14:18.978Z,65.65
2023-04-12T20:16:47.613Z,65.67
2023-04-12T20:19:16.587Z,65.70
2023-04-12T20:21:45.570Z,65.39
2023-04-12T20:24:14.349Z,65.65
2023-04-12T20:26:46.655Z,65.65
2023-04-12T20:29:16.302Z,65.52
2023-04-12T20:31:48.041Z,65.59
2023-04-12T20:34:17.865Z,65.70
2023-04-12T20:36:47.395Z,65.60
2023-04-12T20:39:16.540Z,65.72
2023-04-12T20:41:50.234Z,65.72
2023-04-12T20:44:19.694Z,65.83
2023-04-12T20:46:51.269Z,65.96
2023-04-12T20:49:20.711Z,66.13
2023-04-12T20:51:50.109Z,66.14
2023-04-12T20:54:19.942Z,66.07
2023-04-12T20:56:48.297Z,66.04
2023-04-12T20:59:24.454Z,66.05
2023-04-12T21:01:53.319Z,66.21
2023-04-12T21:04:22.639Z,66.42
2023-04-12T21:06:55.661Z,66.33
2023-04-12T21:09:24.915Z,66.35
2023-04-12T21:11:53.970Z,66.37
2023-04-12T21:14:26.664Z,66.23
2023-04-12T21:16:55.168Z,66.28
2023-04-12T21:19:24.105Z,66.57
2023-04-12T21:21:54.048Z,66.60
2023-04-12T21:24:23.233Z,66.85
2023-04-12T21:26:56.607Z,67.02
2023-04-12T21:29:31.949Z,67.16
2023-04-12T21:32:02.425Z,67.21
2023-04-12T21:34:32.875Z,67.46
2023-04-12T21:37:02.214Z,67.58
2023-04-12T21:39:31.801Z,67.67
2023-04-12T21:42:00.765Z,67.59
2023-04-12T21:44:31.044Z,67.56
2023-04-12T21:46:59.697Z,67.60
2023-04-12T21:49:30.335Z,67.97
2023-04-12T21:51:59.417Z,68.02
2023-04-12T21:54:37.047Z,67.94
2023-04-12T21:57:06.388Z,68.13
2023-04-12T21:59:34.869Z,68.10
2023-04-12T22:02:03.448Z,68.17
2023-04-12T22:04:32.003Z,68.26
2023-04-12T22:07:04.099Z,68.23
2023-04-12T22:09:33.899Z,68.29
2023-04-12T22:12:06.731Z,68.35
2023-04-12T22:14:36.607Z,68.44
2023-04-12T22:17:06.309Z,68.62
2023-04-12T22:19:34.807Z,68.75
2023-04-12T22:22:04.210Z,68.84
2023-04-12T22:24:33.888Z,69.04
2023-04-12T22:27:05.472Z,69.11
2023-04-12T22:29:35.428Z,69.15
2023-04-12T22:32:03.960Z,69.16
2023-04-12T22:34:34.049Z,69.14
2023-04-12T22:37:08.733Z,69.33
2023-04-12T22:39:37.906Z,69.50
2023-04-12T22:42:06.555Z,69.81
2023-04-12T22:44:39.883Z,69.83
2023-04-12T22:47:08.931Z,70.35
2023-04-12T22:49:44.858Z,70.44
2023-04-12T22:52:13.874Z,70.99
2023-04-12T22:54:42.371Z,71.64
2023-04-12T22:57:10.925Z,71.99
2023-04-12T22:59:39.627Z,71.88
2023-04-12T23:02:09.763Z,72.91
2023-04-12T23:04:38.446Z,72.67
2023-04-12T23:07:06.976Z,72.37
2023-04-12T23:09:36.297Z,72.36
2023-04-12T23:12:06.561Z,72.14
2023-04-12T23:14:40.500Z,72.34
2023-04-12T23:17:10.453Z,72.18
2023-04-12T23:19:39.189Z,72.38
2023-04-12T23:22:09.230Z,72.67
2023-04-12T23:24:40.656Z,72.46
2023-04-12T23:27:09.862Z,72.38
2023-04-12T23:29:38.907Z,72.62
2023-04-12T23:32:08.105Z,72.65
2023-04-12T23:34:36.745Z,72.68
2023-04-12T23:37:05.507Z,72.90
2023-04-12T23:39:35.777Z,72.65
2023-04-12T23:42:04.407Z,72.88
2023-04-12T23:44:34.908Z,72.96
2023-04-12T23:47:03.627Z,72.84
2023-04-12T23:49:32.153Z,72.56
2023-04-12T23:52:02.554Z,72.56
2023-04-12T23:54:31.917Z,72.48
2023-04-12T23:57:01.467Z,72.58
2023-04-12T23:59:31.026Z,72.84
